Furacão FERNANDA 2017: trajetória, intensidade e histórico
23/07/2017, 00:00:00
11/07/2017, 18:00:00 – 23/07/2017, 00:00:00
Trajetória histórica
Acompanhe a evolução e o deslocamento de Furacão FERNANDA em 2017, com a trajetória completa registrada, ventos máximos sustentados de 125 nós, pressão central mínima e cronologia detalhada.
| Data | Hora | Tipo | Ventokm/h | PressãohPa |
|---|---|---|---|---|
| 23/07 | 00:00 | RBaixa remanescente | 55 | 1009 |
| 22/07 | 21:00 | RBaixa remanescente | 55 | 1009 |
| 22/07 | 18:00 | RBaixa remanescente | 55 | 1009 |
| 22/07 | 15:00 | TSTempestade tropical | 60 | 1007 |
| 22/07 | 12:00 | TSTempestade tropical | 65 | 1005 |
| 22/07 | 09:00 | TSTempestade tropical | 65 | 1005 |
| 22/07 | 06:00 | TSTempestade tropical | 65 | 1004 |
| 22/07 | 03:00 | TSTempestade tropical | 65 | 1004 |
| 22/07 | 00:00 | TSTempestade tropical | 65 | 1004 |
| 21/07 | 21:00 | TSTempestade tropical | 65 | 1004 |
| 21/07 | 18:00 | TSTempestade tropical | 65 | 1004 |
| 21/07 | 15:00 | TSTempestade tropical | 70 | 1003 |
| 21/07 | 12:00 | TSTempestade tropical | 75 | 1002 |
| 21/07 | 09:00 | TSTempestade tropical | 80 | 1001 |
| 21/07 | 06:00 | TSTempestade tropical | 85 | 1000 |
| 21/07 | 03:00 | TSTempestade tropical | 85 | 1000 |
| 21/07 | 00:00 | TSTempestade tropical | 85 | 1000 |
| 20/07 | 21:00 | TSTempestade tropical | 85 | 1002 |
| 20/07 | 18:00 | TSTempestade tropical | 85 | 1004 |
| 20/07 | 15:00 | TSTempestade tropical | 95 | 1002 |
| 20/07 | 12:00 | TSTempestade tropical | 100 | 999 |
| 20/07 | 09:00 | TSTempestade tropical | 105 | 996 |
| 20/07 | 06:00 | TSTempestade tropical | 110 | 993 |
| 20/07 | 03:00 | TSTempestade tropical | 115 | 992 |
| 20/07 | 00:00 | HFuracão | 120 | 990 |
| 19/07 | 21:00 | HFuracão | 125 | 989 |
| 19/07 | 18:00 | HFuracão | 130 | 987 |
| 19/07 | 15:00 | HFuracão | 135 | 985 |
| 19/07 | 12:00 | HFuracão | 140 | 983 |
| 19/07 | 09:00 | HFuracão | 145 | 982 |
| 19/07 | 06:00 | HFuracão | 150 | 980 |
| 19/07 | 03:00 | HFuracão | 155 | 978 |
| 19/07 | 00:00 | HFuracão | 155 | 976 |
| 18/07 | 21:00 | HFuracão | 165 | 974 |
| 18/07 | 18:00 | HFuracão | 165 | 971 |
| 18/07 | 15:00 | HFuracão | 165 | 971 |
| 18/07 | 12:00 | HFuracão | 165 | 971 |
| 18/07 | 09:00 | HFuracão | 165 | 971 |
| 18/07 | 06:00 | HFuracão | 165 | 971 |
| 18/07 | 03:00 | HFuracão | 170 | 969 |
| 18/07 | 00:00 | HFuracão | 175 | 967 |
| 17/07 | 21:00 | HFuracão | 180 | 965 |
| 17/07 | 18:00 | MHFuracão de grande intensidade | 185 | 963 |
| 17/07 | 15:00 | HFuracão | 190 | 961 |
| 17/07 | 12:00 | MHFuracão de grande intensidade | 195 | 959 |
| 17/07 | 09:00 | HFuracão | 200 | 958 |
| 17/07 | 06:00 | MHFuracão de grande intensidade | 205 | 957 |
| 17/07 | 03:00 | HFuracão | 205 | 957 |
| 17/07 | 00:00 | MHFuracão de grande intensidade | 205 | 956 |
| 16/07 | 21:00 | HFuracão | 210 | 956 |
| 16/07 | 18:00 | MHFuracão de grande intensidade | 215 | 955 |
| 16/07 | 15:00 | HFuracão | 215 | 955 |
| 16/07 | 12:00 | MHFuracão de grande intensidade | 215 | 955 |
| 16/07 | 09:00 | HFuracão | 215 | 955 |
| 16/07 | 06:00 | MHFuracão de grande intensidade | 215 | 955 |
| 16/07 | 03:00 | HFuracão | 215 | 955 |
| 16/07 | 00:00 | MHFuracão de grande intensidade | 215 | 955 |
| 15/07 | 21:00 | HFuracão | 215 | 955 |
| 15/07 | 18:00 | MHFuracão de grande intensidade | 215 | 955 |
| 15/07 | 15:00 | HFuracão | 220 | 954 |
| 15/07 | 12:00 | MHFuracão de grande intensidade | 220 | 953 |
| 15/07 | 09:00 | HFuracão | 230 | 951 |
| 15/07 | 06:00 | MHFuracão de grande intensidade | 230 | 948 |
| 15/07 | 03:00 | HFuracão | 230 | 948 |
| 15/07 | 00:00 | MHFuracão de grande intensidade | 230 | 948 |
| 14/07 | 21:00 | HFuracão | 220 | 955 |
| 14/07 | 18:00 | MHFuracão de grande intensidade | 205 | 961 |
| 14/07 | 15:00 | HFuracão | 190 | 967 |
| 14/07 | 12:00 | HFuracão | 175 | 972 |
| 14/07 | 09:00 | HFuracão | 165 | 976 |
| 14/07 | 06:00 | HFuracão | 155 | 980 |
| 14/07 | 03:00 | HFuracão | 150 | 984 |
| 14/07 | 00:00 | HFuracão | 140 | 987 |
| 13/07 | 21:00 | HFuracão | 130 | 991 |
| 13/07 | 18:00 | HFuracão | 120 | 995 |
| 13/07 | 15:00 | TSTempestade tropical | 110 | 998 |
| 13/07 | 12:00 | TSTempestade tropical | 100 | 1000 |
| 13/07 | 09:00 | TSTempestade tropical | 95 | 1002 |
| 13/07 | 06:00 | TSTempestade tropical | 85 | 1003 |
| 13/07 | 03:00 | TSTempestade tropical | 80 | 1004 |
| 13/07 | 00:00 | TSTempestade tropical | 75 | 1004 |
| 12/07 | 21:00 | TSTempestade tropical | 70 | 1005 |
| 12/07 | 18:00 | TSTempestade tropical | 65 | 1005 |
| 12/07 | 15:00 | TDDepressão tropical | 60 | 1006 |
| 12/07 | 12:00 | TDDepressão tropical | 55 | 1006 |
| 12/07 | 09:00 | TDDepressão tropical | 55 | 1007 |
| 12/07 | 06:00 | TDDepressão tropical | 55 | 1007 |
| 12/07 | 03:00 | TDDepressão tropical | 55 | 1007 |
| 12/07 | 00:00 | TDDepressão tropical | 55 | 1007 |
| 11/07 | 21:00 | TDDepressão tropical | 50 | 1007 |
| 11/07 | 18:00 | TDDepressão tropical | 45 | 1007 |
Cronologia de localização
91 Registos de localizaçãoDesastres naturais próximos
Detalhes do evento
Ligações das fontes
Também pode encontrar estas ferramentas úteis
A localização, a extensão e o estado de cada evento podem ser atualizados em momentos diferentes consoante a fonte. Confirme decisões importantes junto das autoridades oficiais de emergência.
Os registos de eventos provêm da NASA EONET e são complementados por registos de deslizamentos de terra do USGS FDSN. As análises e previsões de tempestades podem utilizar a NOAA NHC ou o JTWC, com registos históricos ATCF da UCAR/NCAR quando disponíveis. As imagens de satélite provêm da NASA Worldview/GIBS (GOES e Himawari) ou da EUMETSAT Meteosat, consoante a cobertura do mapa.
Fontes: NASA EONET · USGS · NOAA NHC · JTWC · UCAR/NCAR ATCF · NASA Worldview/GIBS · EUMETSAT Meteosat · OpenStreetMap contributors